createdAt,value
2019-01-02T00:01:34.884Z,5.20
2019-01-02T00:04:02.505Z,5.30
2019-01-02T00:06:30.080Z,5.50
2019-01-02T00:08:57.696Z,5.50
2019-01-02T00:11:25.244Z,5.20
2019-01-02T00:13:52.868Z,5.10
2019-01-02T00:16:20.425Z,5.10
2019-01-02T00:18:47.992Z,5.10
2019-01-02T00:21:15.536Z,5.10
2019-01-02T00:23:43.108Z,5.30
2019-01-02T00:26:10.665Z,5.50
2019-01-02T00:28:38.232Z,5.60
2019-01-02T00:31:05.822Z,5.60
2019-01-02T00:33:33.401Z,5.40
2019-01-02T00:36:01.021Z,5.20
2019-01-02T00:38:29.360Z,5.40
2019-01-02T00:40:57.728Z,5.20
2019-01-02T00:43:25.271Z,5.20
2019-01-02T00:45:53.904Z,5.30
2019-01-02T00:48:22.224Z,5.40
2019-01-02T00:50:49.851Z,5.40
2019-01-02T00:53:17.399Z,5.40
2019-01-02T00:55:45.285Z,5.30
2019-01-02T00:58:12.848Z,5.40
2019-01-02T01:00:40.464Z,5.40
2019-01-02T01:03:08.014Z,5.30
2019-01-02T01:05:35.612Z,5.20
2019-01-02T01:08:03.198Z,5.30
2019-01-02T01:10:30.769Z,5.10
2019-01-02T01:12:58.351Z,4.80
2019-01-02T01:15:25.908Z,5.00
2019-01-02T01:17:53.456Z,5.30
2019-01-02T01:20:21.043Z,5.30
2019-01-02T01:22:49.360Z,5.30
2019-01-02T01:25:17.136Z,5.30
2019-01-02T01:27:45.604Z,5.50
2019-01-02T01:30:13.193Z,5.30
2019-01-02T01:32:41.524Z,5.50
2019-01-02T01:35:09.071Z,5.50
2019-01-02T01:37:36.690Z,5.20
2019-01-02T01:40:04.233Z,5.00
2019-01-02T01:42:31.811Z,4.90
2019-01-02T01:44:59.383Z,4.90
2019-01-02T01:47:26.936Z,4.80
2019-01-02T01:49:54.512Z,4.50
2019-01-02T01:52:22.091Z,4.40
2019-01-02T01:54:50.476Z,4.30
2019-01-02T01:57:18.019Z,4.30
2019-01-02T01:59:45.584Z,4.50
2019-01-02T02:02:13.195Z,4.40
2019-01-02T02:04:40.764Z,4.30
2019-01-02T02:07:08.351Z,4.30
2019-01-02T02:09:35.913Z,4.40
2019-01-02T02:12:03.492Z,4.50
2019-01-02T02:14:31.106Z,4.40
2019-01-02T02:16:58.651Z,4.30
2019-01-02T02:19:26.235Z,4.30
2019-01-02T02:21:53.807Z,4.40
2019-01-02T02:24:21.339Z,4.50
2019-01-02T02:26:48.915Z,4.30
2019-01-02T02:29:16.513Z,4.20
2019-01-02T02:31:44.213Z,4.20
2019-01-02T02:34:11.779Z,4.20
2019-01-02T02:36:39.368Z,4.10
2019-01-02T02:39:06.984Z,4.10
2019-01-02T02:41:34.576Z,4.00
2019-01-02T02:44:02.187Z,4.20
2019-01-02T02:46:29.773Z,4.10
2019-01-02T02:48:57.321Z,4.00
2019-01-02T02:51:24.936Z,3.90
2019-01-02T02:53:52.530Z,4.00
2019-01-02T02:56:20.151Z,4.00
2019-01-02T02:58:47.736Z,4.10
2019-01-02T03:01:15.354Z,4.10
2019-01-02T03:03:42.937Z,4.30
2019-01-02T03:06:10.531Z,4.20
2019-01-02T03:08:38.116Z,3.90
2019-01-02T03:11:06.677Z,4.00
2019-01-02T03:13:34.292Z,3.80
2019-01-02T03:16:01.877Z,3.90
2019-01-02T03:18:29.498Z,3.80
2019-01-02T03:20:57.109Z,3.60
2019-01-02T03:23:24.647Z,3.50
2019-01-02T03:25:52.216Z,3.50
2019-01-02T03:28:19.804Z,3.40
2019-01-02T03:30:47.400Z,3.40
2019-01-02T03:33:15.012Z,3.40
2019-01-02T03:35:42.580Z,3.40
2019-01-02T03:38:11.130Z,3.40
2019-01-02T03:40:38.672Z,3.40
2019-01-02T03:43:06.231Z,3.30
2019-01-02T03:45:33.768Z,3.30
2019-01-02T03:48:01.303Z,3.40
2019-01-02T03:50:29.944Z,3.60
2019-01-02T03:52:57.484Z,4.00
2019-01-02T03:55:25.052Z,3.80
2019-01-02T03:57:52.620Z,3.90
2019-01-02T04:00:20.165Z,4.00
2019-01-02T04:02:47.740Z,4.20
2019-01-02T04:05:15.361Z,4.30
2019-01-02T04:07:42.962Z,4.10
2019-01-02T04:10:10.484Z,3.90
2019-01-02T04:12:38.808Z,3.70
2019-01-02T04:15:06.341Z,3.70
2019-01-02T04:17:33.908Z,3.70
2019-01-02T04:20:01.443Z,4.00
2019-01-02T04:22:29.004Z,3.70
2019-01-02T04:24:56.539Z,3.40
2019-01-02T04:27:24.111Z,3.40
2019-01-02T04:29:51.650Z,3.60
2019-01-02T04:32:19.223Z,3.80
2019-01-02T04:34:46.761Z,3.90
2019-01-02T04:37:14.334Z,3.80
2019-01-02T04:39:42.644Z,3.60
2019-01-02T04:42:10.221Z,3.60
2019-01-02T04:44:37.785Z,3.50
2019-01-02T04:47:05.355Z,3.30
2019-01-02T04:49:32.892Z,3.20
2019-01-02T04:52:00.551Z,3.30
2019-01-02T04:54:28.083Z,3.60
2019-01-02T04:56:55.648Z,3.70
2019-01-02T04:59:23.189Z,3.40
2019-01-02T05:01:50.768Z,3.30
2019-01-02T05:04:18.296Z,3.30
2019-01-02T05:06:45.864Z,3.10
2019-01-02T05:09:13.401Z,3.10
2019-01-02T05:11:41.706Z,3.00
2019-01-02T05:14:09.264Z,2.90
2019-01-02T05:16:36.913Z,3.00
2019-01-02T05:19:04.489Z,3.10
2019-01-02T05:21:32.032Z,3.20
2019-01-02T05:23:59.604Z,3.20
2019-01-02T05:26:27.140Z,3.20
2019-01-02T05:28:54.713Z,3.20
2019-01-02T05:31:22.249Z,3.10
2019-01-02T05:33:49.811Z,3.20
2019-01-02T05:36:17.350Z,3.10
2019-01-02T05:38:44.880Z,3.10
2019-01-02T05:41:12.501Z,3.20
2019-01-02T05:43:40.041Z,3.10
2019-01-02T05:46:07.605Z,3.00
2019-01-02T05:48:35.168Z,2.90
2019-01-02T05:51:02.704Z,2.90
2019-01-02T05:53:30.276Z,2.80
2019-01-02T05:55:57.839Z,2.70
2019-01-02T05:58:26.532Z,2.60
2019-01-02T06:00:54.139Z,2.70
2019-01-02T06:03:21.703Z,2.80
2019-01-02T06:05:50.127Z,2.80
2019-01-02T06:08:17.690Z,2.80
2019-01-02T06:10:45.223Z,2.80
2019-01-02T06:13:13.107Z,2.70
2019-01-02T06:15:40.649Z,2.70
2019-01-02T06:18:08.214Z,2.50
2019-01-02T06:20:35.752Z,2.50
2019-01-02T06:23:03.312Z,2.60
2019-01-02T06:25:31.007Z,2.60
2019-01-02T06:27:58.567Z,2.60
2019-01-02T06:30:26.126Z,2.70
2019-01-02T06:32:53.692Z,2.60
2019-01-02T06:35:22.041Z,2.50
2019-01-02T06:37:49.578Z,2.50
2019-01-02T06:40:17.147Z,2.60
2019-01-02T06:42:44.732Z,2.50
2019-01-02T06:45:13.271Z,2.60
2019-01-02T06:47:40.840Z,2.50
2019-01-02T06:50:09.117Z,2.60
2019-01-02T06:52:37.647Z,2.60
2019-01-02T06:55:05.228Z,2.70
2019-01-02T06:57:32.772Z,2.70
2019-01-02T07:00:00.381Z,2.70
2019-01-02T07:02:27.919Z,2.70
2019-01-02T07:04:55.485Z,2.70
2019-01-02T07:07:23.028Z,2.60
2019-01-02T07:09:50.592Z,2.60
2019-01-02T07:12:18.127Z,2.60
2019-01-02T07:14:46.432Z,2.60
2019-01-02T07:17:13.998Z,2.60
2019-01-02T07:19:41.540Z,2.60
2019-01-02T07:22:09.104Z,2.70
2019-01-02T07:24:36.679Z,2.70
2019-01-02T07:27:04.221Z,2.80
2019-01-02T07:29:31.789Z,2.80
2019-01-02T07:31:59.328Z,2.80
2019-01-02T07:34:27.023Z,2.80
2019-01-02T07:37:19.277Z,2.70
2019-01-02T07:39:53.408Z,2.80
2019-01-02T07:42:25.513Z,2.80
2019-01-02T07:48:27.626Z,2.80
2019-01-02T07:51:05.843Z,2.80
2019-01-02T07:56:58.208Z,2.90
2019-01-02T07:59:29.636Z,2.90
2019-01-02T08:05:12.069Z,2.90
2019-01-02T08:07:45.084Z,2.90
2019-01-02T08:10:20.008Z,3.00
2019-01-02T08:16:12.152Z,3.10
2019-01-02T08:19:00.249Z,3.20
2019-01-02T08:21:49.446Z,3.30
2019-01-02T08:24:41.788Z,3.30
2019-01-02T08:27:21.116Z,3.10
2019-01-02T08:29:53.396Z,2.80
2019-01-02T08:32:33.574Z,2.70
2019-01-02T08:35:03.072Z,2.70
2019-01-02T08:40:50.638Z,2.50
2019-01-02T08:46:17.772Z,2.40
2019-01-02T08:49:01.928Z,2.50
2019-01-02T08:54:27.292Z,2.80
2019-01-02T08:57:03.440Z,2.50
2019-01-02T08:59:50.497Z,2.70
2019-01-02T09:02:38.433Z,2.80
2019-01-02T09:05:12.864Z,2.90
2019-01-02T09:07:57.084Z,3.10
2019-01-02T09:10:49.126Z,3.20
2019-01-02T09:13:30.500Z,3.20
2019-01-02T09:19:34.584Z,3.20
2019-01-02T09:22:22.664Z,3.20
2019-01-02T09:24:58.775Z,3.20
2019-01-02T09:27:53.899Z,3.20
2019-01-02T09:30:30.244Z,3.40
2019-01-02T09:32:59.415Z,3.30
2019-01-02T09:35:48.583Z,3.30
2019-01-02T09:38:22.033Z,3.50
2019-01-02T09:43:49.520Z,3.50
2019-01-02T09:49:36.050Z,3.50
2019-01-02T09:52:33.346Z,3.60
2019-01-02T09:55:04.600Z,3.50
2019-01-02T09:57:35.056Z,3.60
2019-01-02T10:00:11.600Z,3.80
2019-01-02T10:05:44.822Z,3.70
2019-01-02T10:08:27.031Z,3.70
2019-01-02T10:10:58.326Z,3.70
2019-01-02T10:13:30.770Z,3.80
2019-01-02T10:16:08.672Z,4.00
2019-01-02T10:18:40.791Z,3.90
2019-01-02T10:21:14.929Z,3.80
2019-01-02T10:23:43.329Z,3.80
2019-01-02T10:26:27.407Z,3.90
2019-01-02T10:29:07.817Z,3.90
2019-01-02T10:31:36.266Z,3.90
2019-01-02T10:34:18.419Z,3.90
2019-01-02T10:36:57.428Z,4.00
2019-01-02T10:39:40.753Z,3.90
2019-01-02T10:42:09.177Z,4.20
2019-01-02T10:44:51.224Z,4.30
2019-01-02T10:47:38.187Z,4.30
2019-01-02T10:53:08.391Z,4.30
2019-01-02T10:56:01.717Z,4.40
2019-01-02T10:58:36.634Z,4.60
2019-01-02T11:01:23.868Z,4.80
2019-01-02T11:03:56.104Z,4.80
2019-01-02T11:06:25.619Z,4.90
2019-01-02T11:08:55.797Z,5.00
2019-01-02T11:11:35.876Z,4.90
2019-01-02T11:14:08.349Z,4.80
2019-01-02T11:16:53.556Z,4.80
2019-01-02T11:19:29.699Z,4.90
2019-01-02T11:25:14.262Z,5.10
2019-01-02T11:30:56.505Z,5.00
2019-01-02T11:33:37.809Z,4.60
2019-01-02T11:36:08.086Z,4.60
2019-01-02T11:38:43.208Z,4.60
2019-01-02T11:41:15.513Z,4.40
2019-01-02T11:44:04.508Z,4.50
2019-01-02T11:46:32.052Z,4.60
2019-01-02T11:48:59.617Z,4.70
2019-01-02T11:51:27.163Z,4.70
2019-01-02T11:53:55.504Z,4.80
2019-01-02T11:56:23.044Z,4.80
2019-01-02T11:58:50.580Z,4.90
2019-01-02T12:01:18.139Z,4.80
2019-01-02T12:03:45.688Z,5.00
2019-01-02T12:06:13.376Z,4.90
2019-01-02T12:08:40.916Z,4.80
2019-01-02T12:11:08.488Z,4.50
2019-01-02T12:13:36.025Z,4.50
2019-01-02T12:16:03.598Z,4.70
2019-01-02T12:18:31.141Z,4.50
2019-01-02T12:20:58.682Z,4.40
2019-01-02T12:23:26.241Z,4.30
2019-01-02T12:25:54.584Z,4.20
2019-01-02T12:28:22.157Z,4.20
2019-01-02T12:30:49.698Z,4.30
2019-01-02T12:33:17.257Z,4.30
2019-01-02T12:35:44.821Z,4.20
2019-01-02T12:38:12.380Z,4.20
2019-01-02T12:40:39.920Z,4.30
2019-01-02T12:43:07.457Z,4.40
2019-01-02T12:45:35.016Z,4.50
2019-01-02T12:48:02.548Z,4.40
2019-01-02T12:50:30.125Z,4.60
2019-01-02T12:52:57.692Z,4.60
2019-01-02T12:55:25.228Z,4.60
2019-01-02T12:57:52.792Z,4.50
2019-01-02T13:00:20.328Z,4.40
2019-01-02T13:06:00.374Z,4.60
2019-01-02T13:08:47.568Z,4.70
2019-01-02T13:11:15.107Z,4.70
2019-01-02T13:13:53.308Z,4.50
2019-01-02T13:16:20.853Z,4.40
2019-01-02T13:18:51.676Z,4.50
2019-01-02T13:21:24.767Z,4.50
2019-01-02T13:23:55.891Z,4.60
2019-01-02T13:26:24.955Z,4.60
2019-01-02T13:29:05.356Z,4.60
2019-01-02T13:34:45.442Z,4.70
2019-01-02T13:37:18.611Z,4.70
2019-01-02T13:39:52.777Z,4.80
2019-01-02T13:45:20.467Z,5.00
2019-01-02T13:47:53.931Z,4.80
2019-01-02T13:50:23.937Z,4.70
2019-01-02T13:52:58.029Z,4.70
2019-01-02T13:55:25.589Z,4.60
2019-01-02T13:57:53.180Z,4.80
2019-01-02T14:00:20.748Z,4.70
2019-01-02T14:02:48.319Z,4.80
2019-01-02T14:05:15.856Z,4.80
2019-01-02T14:07:43.424Z,4.60
2019-01-02T14:10:10.978Z,4.40
2019-01-02T14:12:38.542Z,4.20
2019-01-02T14:15:06.123Z,4.00
2019-01-02T14:17:33.663Z,4.10
2019-01-02T14:20:01.231Z,3.70
2019-01-02T14:22:28.771Z,3.70
2019-01-02T14:24:56.336Z,3.40
2019-01-02T14:27:23.872Z,3.30
2019-01-02T14:29:51.431Z,3.20
2019-01-02T14:32:18.973Z,3.20
2019-01-02T14:34:46.535Z,3.30
2019-01-02T14:37:14.073Z,3.30
2019-01-02T14:39:41.631Z,3.40
2019-01-02T14:42:09.200Z,3.40
2019-01-02T14:44:36.764Z,3.40
2019-01-02T14:47:04.304Z,3.40
2019-01-02T14:49:32.169Z,3.40
2019-01-02T14:51:59.709Z,3.70
2019-01-02T14:54:27.278Z,3.90
2019-01-02T14:56:54.839Z,3.80
2019-01-02T14:59:22.405Z,3.80
2019-01-02T15:01:49.945Z,3.60
2019-01-02T15:04:18.651Z,3.80
2019-01-02T15:06:46.189Z,3.60
2019-01-02T15:09:13.757Z,3.60
2019-01-02T15:11:41.295Z,3.90
2019-01-02T15:14:08.857Z,3.80
2019-01-02T15:16:36.431Z,3.50
2019-01-02T15:19:03.972Z,3.40
2019-01-02T15:21:31.573Z,3.50
2019-01-02T15:23:59.116Z,3.70
2019-01-02T15:26:26.685Z,3.60
2019-01-02T15:28:54.228Z,3.40
2019-01-02T15:31:21.801Z,3.60
2019-01-02T15:33:49.345Z,3.40
2019-01-02T15:36:16.885Z,3.40
2019-01-02T15:38:44.443Z,3.50
2019-01-02T15:41:12.012Z,3.80
2019-01-02T15:43:39.571Z,3.70
2019-01-02T15:46:07.128Z,3.70
2019-01-02T15:48:34.678Z,3.60
2019-01-02T15:51:02.247Z,3.60
2019-01-02T15:53:29.989Z,3.60
2019-01-02T15:55:57.564Z,3.90
2019-01-02T15:58:25.340Z,4.10
2019-01-02T16:00:52.711Z,4.10
2019-01-02T16:03:20.253Z,4.30
2019-01-02T16:05:47.824Z,4.10
2019-01-02T16:08:16.165Z,3.70
2019-01-02T16:10:44.730Z,3.70
2019-01-02T16:13:12.272Z,3.80
2019-01-02T16:15:39.820Z,4.20
2019-01-02T16:18:08.155Z,4.50
2019-01-02T16:20:35.721Z,4.50
2019-01-02T16:23:03.290Z,4.30
2019-01-02T16:25:30.836Z,4.40
2019-01-02T16:27:58.396Z,4.40
2019-01-02T16:30:25.940Z,4.50
2019-01-02T16:32:53.508Z,4.50
2019-01-02T16:35:21.054Z,4.40
2019-01-02T16:37:48.597Z,4.20
2019-01-02T16:40:16.160Z,4.10
2019-01-02T16:42:43.724Z,4.10
2019-01-02T16:47:45.165Z,4.10
2019-01-02T16:50:12.700Z,4.00
2019-01-02T16:52:40.272Z,3.80
2019-01-02T16:55:07.891Z,3.80
2019-01-02T16:57:35.431Z,3.80
2019-01-02T17:00:03.255Z,3.70
2019-01-02T17:02:30.822Z,3.80
2019-01-02T17:04:58.360Z,3.90
2019-01-02T17:07:25.932Z,4.00
2019-01-02T17:09:53.504Z,3.90
2019-01-02T17:12:21.132Z,3.80
2019-01-02T17:14:48.685Z,3.80
2019-01-02T17:17:16.230Z,3.80
2019-01-02T17:19:44.784Z,3.80
2019-01-02T17:22:12.348Z,3.80
2019-01-02T17:24:39.920Z,3.80
2019-01-02T17:27:08.217Z,3.70
2019-01-02T17:29:35.782Z,3.70
2019-01-02T17:32:03.563Z,3.70
2019-01-02T17:34:31.127Z,3.70
2019-01-02T17:36:58.664Z,3.80
2019-01-02T17:39:26.253Z,3.80
2019-01-02T17:41:53.824Z,3.80
2019-01-02T17:44:21.359Z,3.80
2019-01-02T17:46:48.917Z,3.50
2019-01-02T17:49:16.457Z,3.60
2019-01-02T17:51:44.028Z,3.50
2019-01-02T17:54:11.573Z,3.50
2019-01-02T17:56:39.297Z,3.60
2019-01-02T17:59:06.879Z,3.90
2019-01-02T18:01:34.420Z,3.60
2019-01-02T18:04:01.992Z,3.70
2019-01-02T18:06:29.568Z,3.50
2019-01-02T18:08:57.136Z,3.30
2019-01-02T18:11:24.680Z,3.40
2019-01-02T18:13:52.260Z,3.30
2019-01-02T18:16:19.796Z,3.30
2019-01-02T18:18:47.362Z,3.30
2019-01-02T18:21:14.900Z,3.30
2019-01-02T18:23:43.460Z,3.40
2019-01-02T18:26:11.024Z,3.40
2019-01-02T18:28:38.586Z,3.50
2019-01-02T18:31:06.153Z,3.60
2019-01-02T18:33:33.716Z,3.60
2019-01-02T18:36:01.279Z,3.60
2019-01-02T18:38:28.845Z,3.90
2019-01-02T18:40:56.389Z,3.80
2019-01-02T18:43:23.952Z,3.60
2019-01-02T18:45:51.497Z,3.90
2019-01-02T18:48:19.059Z,3.60
2019-01-02T18:50:46.600Z,3.60
2019-01-02T18:53:14.160Z,3.50
2019-01-02T18:55:41.696Z,3.50
2019-01-02T18:58:09.263Z,3.40
2019-01-02T19:00:36.808Z,3.40
2019-01-02T19:03:05.141Z,3.30
2019-01-02T19:05:32.703Z,3.30
2019-01-02T19:08:00.259Z,3.30
2019-01-02T19:10:27.796Z,3.20
2019-01-02T19:12:55.344Z,3.10
2019-01-02T19:15:22.908Z,3.10
2019-01-02T19:17:50.448Z,3.10
2019-01-02T19:20:18.022Z,3.10
2019-01-02T19:22:45.567Z,3.20
2019-01-02T19:25:13.137Z,3.00
2019-01-02T19:27:40.680Z,3.00
2019-01-02T19:30:08.253Z,3.10
2019-01-02T19:32:35.829Z,3.00
2019-01-02T19:35:03.397Z,3.30
2019-01-02T19:37:30.960Z,2.90
2019-01-02T19:39:58.524Z,3.00
2019-01-02T19:42:26.340Z,3.00
2019-01-02T19:44:53.940Z,3.10
2019-01-02T19:47:21.489Z,3.20
2019-01-02T19:49:50.012Z,3.20
2019-01-02T19:52:17.554Z,3.20
2019-01-02T19:54:45.120Z,3.20
2019-01-02T19:57:13.527Z,3.30
2019-01-02T19:59:41.109Z,3.30
2019-01-02T20:02:08.652Z,3.20
2019-01-02T20:04:36.221Z,2.80
2019-01-02T20:07:03.760Z,3.10
2019-01-02T20:09:31.318Z,3.20
2019-01-02T20:11:58.851Z,2.90
2019-01-02T20:14:26.387Z,2.70
2019-01-02T20:16:53.960Z,2.60
2019-01-02T20:19:21.495Z,2.80
2019-01-02T20:21:49.476Z,2.90
2019-01-02T20:24:17.067Z,3.00
2019-01-02T20:26:44.657Z,2.80
2019-01-02T20:29:12.193Z,2.80
2019-01-02T20:31:39.724Z,2.80
2019-01-02T20:34:07.292Z,2.90
2019-01-02T20:36:40.588Z,3.10
2019-01-02T20:39:02.511Z,2.90
2019-01-02T20:41:30.039Z,3.00
2019-01-02T20:43:57.583Z,3.00
2019-01-02T20:46:25.912Z,3.30
2019-01-02T20:48:53.445Z,3.20
2019-01-02T20:51:21.067Z,3.20
2019-01-02T20:53:49.363Z,3.30
2019-01-02T20:56:16.930Z,3.30
2019-01-02T20:58:44.468Z,3.30
2019-01-02T21:01:13.192Z,3.00
2019-01-02T21:03:40.784Z,3.00
2019-01-02T21:06:08.320Z,3.10
2019-01-02T21:08:35.892Z,3.20
2019-01-02T21:11:03.439Z,3.00
2019-01-02T21:13:31.016Z,2.80
2019-01-02T21:15:58.556Z,2.60
2019-01-02T21:18:26.120Z,2.40
2019-01-02T21:20:54.060Z,2.30
2019-01-02T21:23:21.646Z,2.20
2019-01-02T21:25:49.212Z,2.20
2019-01-02T21:28:17.347Z,2.10
2019-01-02T21:30:44.881Z,2.10
2019-01-02T21:33:12.440Z,2.10
2019-01-02T21:35:40.008Z,2.50
2019-01-02T21:38:08.644Z,2.60
2019-01-02T21:40:36.387Z,2.30
2019-01-02T21:43:05.148Z,2.30
2019-01-02T21:45:33.700Z,2.20
2019-01-02T21:48:01.278Z,2.30
2019-01-02T21:50:28.818Z,2.40
2019-01-02T21:52:56.400Z,2.50
2019-01-02T21:55:23.990Z,2.80
2019-01-02T21:57:51.592Z,2.90
2019-01-02T22:00:19.133Z,2.60
2019-01-02T22:02:47.470Z,2.80
2019-01-02T22:05:15.053Z,2.80
2019-01-02T22:07:43.068Z,2.40
2019-01-02T22:10:10.649Z,2.30
2019-01-02T22:12:38.212Z,2.10
2019-01-02T22:15:06.812Z,2.00
2019-01-02T22:17:34.348Z,1.90
2019-01-02T22:20:01.921Z,1.80
2019-01-02T22:22:29.464Z,1.80
2019-01-02T22:24:57.034Z,1.80
2019-01-02T22:27:24.579Z,1.80
2019-01-02T22:29:52.156Z,1.80
2019-01-02T22:32:19.693Z,1.70
2019-01-02T22:34:47.256Z,1.70
2019-01-02T22:37:14.795Z,1.60
2019-01-02T22:39:43.344Z,1.50
2019-01-02T22:42:11.008Z,1.60
2019-01-02T22:44:38.575Z,1.50
2019-01-02T22:47:06.220Z,1.40
2019-01-02T22:49:33.790Z,1.30
2019-01-02T22:52:01.356Z,1.30
2019-01-02T22:54:28.931Z,1.30
2019-01-02T22:56:56.472Z,1.20
2019-01-02T22:59:24.044Z,1.10
2019-01-02T23:01:51.616Z,1.10
2019-01-02T23:04:34.047Z,1.10
2019-01-02T23:10:03.549Z,0.90
2019-01-02T23:12:41.039Z,0.90
2019-01-02T23:15:18.523Z,0.70
2019-01-02T23:17:48.852Z,0.80
2019-01-02T23:20:19.220Z,0.80
2019-01-02T23:23:05.582Z,0.80
2019-01-02T23:25:38.891Z,0.90
2019-01-02T23:28:21.360Z,0.70
2019-01-02T23:30:54.565Z,0.50
2019-01-02T23:33:23.727Z,0.30
2019-01-02T23:38:50.479Z,0.20
2019-01-02T23:41:23.700Z,0.10
2019-01-02T23:43:56.916Z,0.20
2019-01-02T23:46:30.138Z,0.20
2019-01-02T23:49:13.437Z,0.20
2019-01-02T23:51:44.492Z,0.10
2019-01-02T23:54:17.707Z,0.10
2019-01-02T23:56:48.204Z,0.10
2019-01-02T23:59:30.619Z,0.10
